ΕΜΥ, Εθνική Μετεωρολογική Υπηρεσία - Δελτία Καιρού, Προγνώσεις

ΑΕΡΟΝΑΥΤΙΛΙΑ

GREEK AIRPORTS CODES

LGRP 020250Z 00000KT 9999 FEW018 SCT020 13/11 Q1015 NOSIG=

EUROPEAN AIRPORTS CODES

LIRF 020250Z 22014KT 9999 SCT030 14/08 Q1008 NOSIG=